Time;durP1;ratioP1;P1;durP2;ratioP2;P2;SDS_P1;SDS_P2;PMS_P1;PMS_P2;Temp;Humidity;BMP_temperature;BMP_pressure;BME280_temperature;BME280_humidity;BME280_pressure;Samples;Min_cycle;Max_cycle;Signal;HPM_P1;HPM_P2
2022/05/18 00:00:21;;;;;;;4.78;3.45;;;;;;;;;;4978536;28;20117;-69
2022/05/18 00:02:47;;;;;;;3.35;2.90;;;;;;;;;;4975154;28;20400;-68
2022/05/18 00:05:13;;;;;;;3.92;2.92;;;20.30;90.80;;;;;;4974697;28;20026;-68
2022/05/18 00:07:39;;;;;;;3.38;2.63;;;;;;;;;;4976655;28;20420;-69
2022/05/18 00:10:05;;;;;;;3.88;2.75;;;;;;;;;;4990820;28;20037;-68
2022/05/18 00:12:31;;;;;;;4.90;4.40;;;;;;;;;;4982705;28;20519;-68
2022/05/18 00:14:58;;;;;;;3.28;2.60;;;;;;;;;;4978620;28;20053;-70
2022/05/18 00:17:23;;;;;;;3.60;3.17;;;20.40;95.70;;;;;;4975171;28;20058;-69
2022/05/18 00:19:49;;;;;;;6.57;4.20;;;;;;;;;;4973426;28;20117;-69
2022/05/18 00:22:15;;;;;;;4.43;2.78;;;;;;;;;;4977716;28;20030;-69
2022/05/18 00:24:41;;;;;;;4.10;2.70;;;;;;;;;;4978044;28;20039;-69
2022/05/18 00:27:07;;;;;;;4.72;2.42;;;;;;;;;;4979908;28;20042;-69
2022/05/18 00:29:34;;;;;;;4.75;3.05;;;;;;;;;;4974913;28;20476;-68
2022/05/18 00:32:00;;;;;;;3.53;2.50;;;;;;;;;;4973828;28;20041;-69
2022/05/18 00:34:26;;;;;;;7.45;3.33;;;;;;;;;;4990387;28;20026;-69
2022/05/18 00:36:53;;;;;;;11.65;2.33;;;;;;;;;;4979081;28;20062;-68
2022/05/18 00:39:20;;;;;;;3.28;2.25;;;;;;;;;;4978024;28;20023;-68
2022/05/18 00:41:46;;;;;;;3.28;2.50;;;;;;;;;;4977345;28;20113;-69
2022/05/18 00:44:12;;;;;;;12.38;3.08;;;19.90;92.70;;;;;;4988974;28;20113;-68
2022/05/18 00:46:38;;;;;;;7.32;2.33;;;;;;;;;;4985275;28;20033;-68
2022/05/18 00:49:08;;;;;;;2.85;2.58;;;;;;;;;;4977106;28;20031;-69
2022/05/18 00:51:34;;;;;;;2.67;2.47;;;;;;;;;;4981610;28;20026;-69
2022/05/18 00:54:05;;;;;;;2.83;2.15;;;;;;;;;;4986105;28;20418;-68
2022/05/18 00:56:42;;;;;;;4.53;2.80;;;;;;;;;;4976277;28;20435;-68
2022/05/18 00:59:09;;;;;;;;;;;19.60;89.30;;;;;;4976231;28;20037;-68
2022/05/18 01:01:35;;;;;;;;;;;;;;;;;;4988250;28;19916;-68
2022/05/18 01:04:02;;;;;;;2.97;2.42;;;19.60;89.80;;;;;;4977426;28;20358;-68
2022/05/18 01:06:55;;;;;;;2.92;2.22;;;19.60;89.30;;;;;;4977538;28;20034;-67
2022/05/18 01:09:30;;;;;;;4.53;2.50;;;;;;;;;;4977347;28;20030;-67
2022/05/18 01:11:56;;;;;;;2.72;2.15;;;19.70;96.20;;;;;;4978365;28;20081;-69
2022/05/18 01:14:26;;;;;;;5.32;2.67;;;;;;;;;;4974604;28;20043;-69
2022/05/18 01:16:53;;;;;;;4.75;2.38;;;;;;;;;;4984818;28;20033;-69
2022/05/18 01:19:39;;;;;;;2.67;2.43;;;;;;;;;;4976060;28;20023;-68
2022/05/18 01:22:29;;;;;;;4.30;3.90;;;;;;;;;;4976592;28;20042;-69
2022/05/18 01:24:55;;;;;;;2.60;2.40;;;;;;;;;;4977201;28;20909;-69
2022/05/18 01:27:21;;;;;;;2.60;1.85;;;;;;;;;;4977133;28;20031;-68
2022/05/18 01:29:47;;;;;;;4.32;2.63;;;;;;;;;;4977025;28;20030;-69
2022/05/18 01:32:14;;;;;;;3.63;2.63;;;;;;;;;;4973364;28;20511;-67
2022/05/18 01:34:42;;;;;;;3.22;2.72;;;;;;;;;;4975185;28;20029;-69
2022/05/18 01:37:07;;;;;;;;;;;;;;;;;;4975086;28;20038;-69
2022/05/18 01:39:40;;;;;;;3.13;2.08;;;19.40;95.50;;;;;;4973683;28;20024;-68
2022/05/18 01:42:06;;;;;;;4.20;3.13;;;;;;;;;;4976290;28;20047;-68
2022/05/18 01:44:37;;;;;;;2.10;2.00;;;19.40;90.00;;;;;;4975599;28;20042;-70
2022/05/18 01:47:04;;;;;;;3.97;3.08;;;;;;;;;;4972703;28;20381;-69
2022/05/18 01:49:30;;;;;;;4.53;3.92;;;19.10;99.00;;;;;;4975856;28;20555;-68
2022/05/18 01:51:56;;;;;;;2.97;2.17;;;;;;;;;;4977302;28;20030;-69
2022/05/18 01:54:22;;;;;;;6.32;2.95;;;19.10;99.30;;;;;;4976460;28;20117;-68
2022/05/18 01:56:48;;;;;;;3.92;2.30;;;19.00;99.30;;;;;;4976768;28;20105;-68
2022/05/18 01:59:14;;;;;;;2.78;2.58;;;;;;;;;;4971410;28;20026;-68
2022/05/18 02:01:40;;;;;;;7.45;2.63;;;;;;;;;;4974709;28;20040;-68
2022/05/18 02:04:06;;;;;;;2.60;2.40;;;;;;;;;;4976266;28;20030;-68
2022/05/18 02:06:33;;;;;;;7.07;2.30;;;;;;;;;;4976277;28;20049;-68
2022/05/18 02:08:59;;;;;;;2.77;2.30;;;;;;;;;;4976087;28;20038;-67
2022/05/18 02:11:26;;;;;;;5.82;2.50;;;;;;;;;;4973911;28;20281;-68
2022/05/18 02:13:52;;;;;;;7.05;2.45;;;;;;;;;;4973204;28;20035;-69
2022/05/18 02:16:18;;;;;;;3.15;2.35;;;18.70;96.50;;;;;;4987752;28;20612;-68
2022/05/18 02:18:44;;;;;;;3.87;2.97;;;;;;;;;;4977999;28;20033;-68
2022/05/18 02:21:11;;;;;;;6.03;2.72;;;;;;;;;;4976104;28;20278;-67
2022/05/18 02:23:39;;;;;;;3.33;2.57;;;18.90;90.90;;;;;;4975279;28;20034;-69
2022/05/18 02:26:09;;;;;;;4.55;2.85;;;;;;;;;;4972797;28;20085;-67
2022/05/18 02:28:35;;;;;;;3.72;2.55;;;;;;;;;;4975567;28;20034;-68
2022/05/18 02:31:01;;;;;;;3.08;2.80;;;;;;;;;;4975002;28;20042;-69
2022/05/18 02:33:27;;;;;;;3.30;2.63;;;;;;;;;;4975955;28;20037;-68
2022/05/18 02:35:53;;;;;;;2.55;2.33;;;;;;;;;;4976090;28;20515;-69
2022/05/18 02:38:19;;;;;;;3.63;2.67;;;;;;;;;;4973285;28;20075;-68
2022/05/18 02:40:45;;;;;;;8.73;3.92;;;;;;;;;;4972483;28;20089;-68
2022/05/18 02:43:11;;;;;;;8.25;4.18;;;;;;;;;;4975800;28;20578;-69
2022/05/18 02:45:37;;;;;;;3.45;2.28;;;;;;;;;;4975573;28;20038;-69
2022/05/18 02:48:03;;;;;;;3.67;2.53;;;;;;;;;;4972193;28;20031;-67
2022/05/18 02:50:29;;;;;;;3.45;2.95;;;;;;;;;;4974617;28;20515;-68
2022/05/18 02:52:55;;;;;;;3.67;3.20;;;;;;;;;;4972359;28;20110;-69
2022/05/18 02:58:06;;;;;;;4.20;2.95;;;;;;;;;;4975672;28;20462;-68
2022/05/18 03:00:32;;;;;;;4.25;3.35;;;17.90;99.90;;;;;;4972050;28;20118;-69
2022/05/18 03:02:58;;;;;;;5.40;3.85;;;;;;;;;;4973043;28;20034;-69
2022/05/18 03:05:24;;;;;;;5.35;3.45;;;;;;;;;;4972748;28;20081;-69
2022/05/18 03:07:50;;;;;;;3.97;2.58;;;;;;;;;;4970901;28;20795;-68
2022/05/18 03:10:18;;;;;;;4.10;3.70;;;;;;;;;;4974895;28;20177;-67
2022/05/18 03:12:44;;;;;;;3.97;3.60;;;;;;;;;;4976655;28;20740;-67
2022/05/18 03:15:10;;;;;;;4.65;3.75;;;;;;;;;;4975150;28;20062;-68
2022/05/18 03:17:36;;;;;;;3.23;2.83;;;;;;;;;;4974824;28;20030;-68
2022/05/18 03:20:03;;;;;;;5.63;3.20;;;;;;;;;;4971657;28;20035;-69
2022/05/18 03:25:13;;;;;;;6.35;4.22;;;;;;;;;;4973021;28;20538;-69
2022/05/18 03:27:41;;;;;;;5.30;3.33;;;;;;;;;;4975428;28;20034;-69
2022/05/18 03:30:07;;;;;;;3.85;3.45;;;;;;;;;;4976793;28;20026;-69
2022/05/18 03:32:33;;;;;;;3.60;3.10;;;;;;;;;;4976102;28;20114;-69
2022/05/18 03:34:59;;;;;;;4.50;3.35;;;;;;;;;;4974968;28;29111;-68
2022/05/18 03:37:25;;;;;;;10.93;3.55;;;;;;;;;;4978307;28;20039;-68
2022/05/18 03:39:51;;;;;;;3.63;3.35;;;;;;;;;;4978620;28;20062;-68
2022/05/18 03:42:17;;;;;;;4.00;3.05;;;;;;;;;;4975609;28;20046;-68
2022/05/18 03:44:43;;;;;;;3.70;3.40;;;;;;;;;;4978899;28;20566;-68
2022/05/18 03:47:10;;;;;;;3.33;3.03;;;;;;;;;;4974675;28;20034;-68
2022/05/18 03:49:36;;;;;;;8.05;3.25;;;;;;;;;;4989111;28;20034;-68
2022/05/18 03:52:02;;;;;;;7.15;3.88;;;;;;;;;;4975998;28;20038;-69
2022/05/18 03:54:29;;;;;;;3.53;3.22;;;17.50;94.10;;;;;;4978487;28;20511;-68
2022/05/18 03:56:55;;;;;;;3.90;3.47;;;;;;;;;;4978509;28;20029;-67
2022/05/18 03:59:21;;;;;;;4.55;3.38;;;;;;;;;;4976999;28;20429;-68
2022/05/18 04:01:47;;;;;;;7.10;3.35;;;;;;;;;;4975782;28;20027;-68
2022/05/18 04:04:13;;;;;;;3.80;2.80;;;;;;;;;;4978335;28;20041;-68
2022/05/18 04:06:39;;;;;;;4.03;3.50;;;;;;;;;;4978500;28;20034;-69
2022/05/18 04:09:05;;;;;;;4.68;3.65;;;;;;;;;;4978446;28;20082;-69
2022/05/18 04:11:31;;;;;;;3.15;2.60;;;;;;;;;;4977025;28;20026;-69
2022/05/18 04:13:57;;;;;;;3.25;2.65;;;;;;;;;;4975151;28;20027;-68
2022/05/18 04:16:23;;;;;;;4.50;3.42;;;;;;;;;;4977682;28;20054;-69
2022/05/18 04:18:49;;;;;;;5.70;4.53;;;;;;;;;;4977799;28;20039;-69
2022/05/18 04:21:15;;;;;;;3.53;3.22;;;;;;;;;;4975335;28;20081;-69
2022/05/18 04:23:41;;;;;;;4.30;3.30;;;17.50;94.00;;;;;;4978673;28;20524;-68
2022/05/18 04:26:08;;;;;;;7.25;3.58;;;17.40;93.90;;;;;;4974939;28;20062;-68
2022/05/18 04:28:35;;;;;;;13.38;3.40;;;;;;;;;;4973086;28;20035;-68
2022/05/18 04:31:01;;;;;;;8.80;3.15;;;;;;;;;;4977920;28;20603;-69
2022/05/18 04:33:27;;;;;;;3.97;3.53;;;17.20;94.40;;;;;;4978225;28;20030;-69
2022/05/18 04:35:53;;;;;;;3.88;3.50;;;;;;;;;;4992675;28;20037;-69
2022/05/18 04:38:20;;;;;;;4.00;3.03;;;17.30;94.30;;;;;;4982147;28;20066;-68
2022/05/18 04:40:47;;;;;;;4.07;3.70;;;;;;;;;;4975068;28;20035;-69
2022/05/18 04:43:13;;;;;;;3.30;2.97;;;;;;;;;;4977403;28;20054;-69
2022/05/18 04:45:44;;;;;;;3.20;2.47;;;17.40;94.10;;;;;;4977736;28;20141;-68
2022/05/18 04:48:11;;;;;;;6.60;3.45;;;;;;;;;;4977717;28;20085;-69
2022/05/18 04:50:37;;;;;;;11.10;3.28;;;;;;;;;;4981815;28;20454;-69
2022/05/18 04:53:03;;;;;;;4.85;3.25;;;;;;;;;;4990303;28;20022;-68
2022/05/18 04:55:29;;;;;;;6.80;2.95;;;;;;;;;;4976640;28;20042;-69
2022/05/18 04:58:00;;;;;;;4.80;3.42;;;17.70;93.60;;;;;;4983445;28;20105;-68
2022/05/18 05:00:26;;;;;;;4.10;2.90;;;;;;;;;;4986255;28;20073;-69
2022/05/18 05:02:56;;;;;;;5.40;3.60;;;17.30;99.90;;;;;;4987893;28;20491;-69
2022/05/18 05:05:22;;;;;;;3.38;3.10;;;17.70;99.90;;;;;;4987451;28;20034;-69
2022/05/18 05:07:47;;;;;;;4.10;2.75;;;17.60;99.90;;;;;;4991499;28;20019;-68
2022/05/18 05:10:14;;;;;;;2.65;2.45;;;17.80;99.10;;;;;;4991398;28;20124;-69
2022/05/18 05:12:40;;;;;;;3.55;3.25;;;;;;;;;;4981602;28;20126;-68
2022/05/18 05:15:07;;;;;;;5.78;3.95;;;;;;;;;;4976476;28;20110;-69
2022/05/18 05:17:33;;;;;;;5.05;3.65;;;;;;;;;;4981779;28;20027;-69
2022/05/18 05:20:00;;;;;;;4.85;3.55;;;;;;;;;;4974948;28;20561;-68
2022/05/18 05:22:26;;;;;;;4.63;3.42;;;;;;;;;;4985721;28;20496;-68
2022/05/18 05:24:53;;;;;;;5.50;3.37;;;;;;;;;;4983154;28;20574;-69
2022/05/18 05:27:19;;;;;;;4.82;3.13;;;;;;;;;;4985339;28;20480;-69
2022/05/18 05:29:45;;;;;;;10.25;3.97;;;;;;;;;;4987850;28;20092;-68
2022/05/18 05:32:11;;;;;;;5.75;3.10;;;;;;;;;;4986794;28;20523;-69
2022/05/18 05:34:37;;;;;;;9.75;3.85;;;;;;;;;;4987283;28;20105;-69
2022/05/18 05:37:04;;;;;;;5.32;3.78;;;;;;;;;;4984781;28;20034;-69
2022/05/18 05:39:29;;;;;;;7.38;3.10;;;19.10;99.00;;;;;;4984187;28;20038;-68
2022/05/18 05:41:55;;;;;;;3.20;2.60;;;;;;;;;;4987029;28;20026;-70
2022/05/18 05:44:21;;;;;;;4.82;3.38;;;;;;;;;;4985070;28;20492;-69
2022/05/18 05:46:47;;;;;;;5.75;3.75;;;;;;;;;;4985423;28;20019;-68
2022/05/18 05:49:14;;;;;;;6.20;3.45;;;;;;;;;;4991139;28;20026;-68
2022/05/18 05:51:40;;;;;;;6.55;3.53;;;;;;;;;;4975882;28;20027;-69
2022/05/18 05:54:07;;;;;;;12.82;3.33;;;;;;;;;;4971058;28;20097;-69
2022/05/18 05:56:33;;;;;;;5.47;3.42;;;;;;;;;;4972299;28;20052;-68
2022/05/18 05:58:59;;;;;;;7.40;3.95;;;;;;;;;;4971231;28;20106;-68
2022/05/18 06:01:25;;;;;;;6.07;2.78;;;;;;;;;;4974169;28;20029;-68
2022/05/18 06:03:51;;;;;;;10.40;3.00;;;;;;;;;;4974948;28;20047;-68
2022/05/18 06:06:19;;;;;;;4.15;2.90;;;;;;;;;;4974434;28;20093;-68
2022/05/18 06:08:45;;;;;;;4.38;3.10;;;;;;;;;;4974837;28;20065;-69
2022/05/18 06:11:11;;;;;;;5.95;2.97;;;;;;;;;;4971876;28;20034;-69
2022/05/18 06:13:38;;;;;;;5.85;3.15;;;20.60;98.50;;;;;;4973086;28;20531;-69
2022/05/18 06:16:05;;;;;;;5.15;3.42;;;;;;;;;;4974471;28;20042;-69
2022/05/18 06:18:33;;;;;;;6.95;2.97;;;;;;;;;;4971756;28;20087;-71
2022/05/18 06:20:59;;;;;;;6.78;3.45;;;;;;;;;;4975575;28;20033;-70
2022/05/18 06:23:25;;;;;;;6.13;3.80;;;;;;;;;;4976650;28;20038;-68
2022/05/18 06:25:52;;;;;;;5.03;3.20;;;21.20;99.50;;;;;;4987715;28;20041;-68
2022/05/18 06:28:18;;;;;;;7.03;3.20;;;;;;;;;;4986562;28;20022;-69
2022/05/18 06:30:44;;;;;;;7.15;2.90;;;;;;;;;;4987056;28;20034;-69
2022/05/18 06:33:11;;;;;;;4.53;2.85;;;;;;;;;;4986399;28;20403;-69
2022/05/18 06:35:37;;;;;;;3.00;2.53;;;;;;;;;;4988400;28;20035;-68
2022/05/18 06:38:09;;;;;;;6.88;3.40;;;;;;;;;;4990100;28;20029;-69
2022/05/18 06:43:22;;;;;;;5.65;4.00;;;22.00;97.30;;;;;;4984456;28;20101;-69
2022/05/18 06:45:48;;;;;;;3.90;3.10;;;;;;;;;;4985125;28;20054;-69
2022/05/18 06:48:14;;;;;;;7.25;4.30;;;;;;;;;;4981820;28;20037;-65
2022/05/18 06:50:39;;;;;;;4.15;3.03;;;22.30;96.80;;;;;;4984843;28;20027;-64
2022/05/18 06:53:05;;;;;;;7.82;3.40;;;;;;;;;;4986259;28;20045;-65
2022/05/18 06:55:31;;;;;;;6.60;2.75;;;;;;;;;;4984831;28;20042;-64
2022/05/18 06:57:58;;;;;;;3.78;2.70;;;;;;;;;;4985290;28;20076;-65
2022/05/18 07:00:24;;;;;;;3.55;2.67;;;;;;;;;;4983428;28;20018;-65
2022/05/18 07:02:50;;;;;;;3.80;2.90;;;;;;;;;;4981873;28;20052;-66
2022/05/18 07:05:16;;;;;;;3.65;2.40;;;;;;;;;;4987781;28;20046;-66
2022/05/18 07:07:42;;;;;;;5.25;2.78;;;23.10;96.00;;;;;;4989462;28;20428;-65
2022/05/18 07:10:08;;;;;;;9.68;3.60;;;;;;;;;;4987938;28;20057;-65
2022/05/18 07:12:37;;;;;;;3.20;2.28;;;;;;;;;;4986707;28;20080;-65
2022/05/18 07:15:04;;;;;;;4.30;2.58;;;;;;;;;;4985166;28;20034;-67
2022/05/18 07:17:29;;;;;;;6.53;2.25;;;23.60;94.60;;;;;;4989146;28;20027;-64
2022/05/18 07:19:55;;;;;;;2.92;2.17;;;;;;;;;;4991925;28;20034;-65
2022/05/18 07:22:21;;;;;;;5.50;2.53;;;;;;;;;;4993824;28;20081;-66
2022/05/18 07:24:47;;;;;;;4.70;2.58;;;;;;;;;;4989742;28;20396;-65
2022/05/18 07:27:13;;;;;;;6.53;1.45;;;;;;;;;;4986057;28;20022;-64
2022/05/18 07:29:39;;;;;;;2.67;2.00;;;26.20;85.30;;;;;;4991749;28;20064;-65
2022/05/18 07:32:08;;;;;;;4.63;1.90;;;;;;;;;;4988375;28;20030;-65
2022/05/18 07:34:37;;;;;;;3.05;1.00;;;28.00;69.40;;;;;;4990876;28;20027;-65
2022/05/18 07:37:03;;;;;;;7.35;1.65;;;;;;;;;;4987516;28;20038;-65
2022/05/18 07:39:30;;;;;;;2.95;1.25;;;31.10;76.80;;;;;;4987226;28;20484;-65
2022/05/18 07:41:56;;;;;;;3.17;1.42;;;;;;;;;;4989759;28;20035;-66
2022/05/18 07:44:22;;;;;;;5.55;1.88;;;33.00;71.20;;;;;;4992194;28;20122;-66
2022/05/18 07:46:49;;;;;;;3.38;1.42;;;;;;;;;;4990199;28;20141;-66
2022/05/18 07:49:15;;;;;;;4.38;1.70;;;;;;;;;;4988002;28;20204;-67
2022/05/18 07:51:41;;;;;;;4.35;1.33;;;;;;;;;;4987513;28;20041;-67
2022/05/18 07:54:07;;;;;;;7.75;1.58;;;;;;;;;;4986329;28;20050;-66
2022/05/18 07:56:36;;;;;;;4.53;1.38;;;;;;;;;;4988058;28;20480;-66
2022/05/18 07:59:03;;;;;;;3.60;1.05;;;35.50;44.70;;;;;;4989347;28;20515;-67
2022/05/18 08:01:29;;;;;;;5.88;1.35;;;36.50;60.20;;;;;;4987175;28;20026;-67
2022/05/18 08:03:55;;;;;;;3.78;1.33;;;;;;;;;;4990385;28;20031;-67
2022/05/18 08:06:21;;;;;;;3.45;1.58;;;;;;;;;;4990282;28;20050;-68
2022/05/18 08:08:47;;;;;;;3.03;1.67;;;;;;;;;;4993431;28;20403;-67
2022/05/18 08:16:56;;;;;;;4.88;1.50;;;;;;;;;;4975733;28;20034;-67
2022/05/18 08:19:22;;;;;;;4.00;1.20;;;;;;;;;;4973840;28;20071;-67
2022/05/18 08:21:48;;;;;;;4.07;1.77;;;37.30;56.40;;;;;;4975983;28;20125;-67
2022/05/18 08:24:14;;;;;;;5.13;1.58;;;38.00;48.70;;;;;;4973824;28;20113;-67
2022/05/18 08:26:41;;;;;;;3.00;1.63;;;37.50;55.40;;;;;;4968593;28;20126;-67
2022/05/18 08:29:08;;;;;;;1.95;1.15;;;37.80;39.40;;;;;;4983050;28;20030;-67
2022/05/18 08:31:33;;;;;;;7.13;1.70;;;38.50;54.50;;;;;;4986181;28;20515;-66
2022/05/18 08:33:59;;;;;;;5.60;1.40;;;;;;;;;;4966788;28;20086;-67
2022/05/18 08:36:26;;;;;;;3.60;1.15;;;;;;;;;;4972670;28;20117;-67
2022/05/18 08:38:55;;;;;;;3.30;1.55;;;39.00;46.90;;;;;;4980581;28;20049;-67
2022/05/18 08:41:23;;;;;;;6.60;2.80;;;;;;;;;;4984004;28;20732;-67
2022/05/18 08:43:52;;;;;;;5.95;2.33;;;36.40;55.00;;;;;;4968285;28;20269;-67
2022/05/18 08:46:45;;;;;;;3.03;1.60;;;37.10;39.40;;;;;;4970525;28;20480;-66
2022/05/18 08:49:11;;;;;;;4.47;1.70;;;;;;;;;;4984307;28;20052;-66
2022/05/18 08:51:48;;;;;;;2.60;1.13;;;;;;;;;;4974173;28;20039;-67
2022/05/18 08:54:44;;;;;;;3.78;2.05;;;36.40;40.40;;;;;;4976357;28;20035;-67
2022/05/18 08:57:22;;;;;;;4.68;1.60;;;;;;;;;;4976367;28;20031;-67
2022/05/18 08:59:53;;;;;;;8.10;1.60;;;37.40;38.90;;;;;;4976060;28;20031;-67
2022/05/18 09:02:23;;;;;;;1.13;1.00;;;36.80;39.70;;;;;;4972492;28;20413;-68
2022/05/18 09:04:49;;;;;;;6.53;2.67;;;;;;;;;;4976858;28;20097;-67
2022/05/18 09:07:19;;;;;;;10.38;1.80;;;37.00;39.80;;;;;;4990841;28;20030;-68
2022/05/18 09:12:37;;;;;;;5.05;1.27;;;;;;;;;;4979501;28;20041;-67
2022/05/18 09:15:04;;;;;;;4.15;1.55;;;;;;;;;;4986468;28;20042;-70
2022/05/18 09:17:57;;;;;;;1.70;1.10;;;36.80;40.10;;;;;;4973318;28;20492;-68
2022/05/18 09:20:43;;;;;;;1.92;1.48;;;37.60;38.30;;;;;;4985049;28;20045;-68
2022/05/18 09:23:28;;;;;;;2.05;0.95;;;38.60;37.00;;;;;;4984113;28;20042;-67
2022/05/18 09:26:22;;;;;;;8.35;2.47;;;38.80;37.70;;;;;;4989981;28;20538;-66
2022/05/18 09:29:35;;;;;;;5.32;2.83;;;39.60;35.40;;;;;;4984177;28;20208;-67
2022/05/18 09:32:24;;;;;;;3.33;1.38;;;40.60;34.60;;;;;;4999312;28;20034;-67
2022/05/18 09:35:23;;;;;;;1.83;0.77;;;41.00;34.30;;;;;;4997330;28;20044;-67
2022/05/18 09:38:06;;;;;;;3.63;1.20;;;41.30;32.80;;;;;;4997770;28;20018;-67
2022/05/18 09:40:41;;;;;;;2.60;1.30;;;41.40;33.00;;;;;;4986975;28;20053;-68
2022/05/18 09:43:18;;;;;;;2.88;1.00;;;41.60;32.30;;;;;;4985206;28;20050;-67
2022/05/18 09:45:47;;;;;;;3.28;1.40;;;;;;;;;;4983673;28;20042;-66
2022/05/18 09:48:40;;;;;;;3.13;0.88;;;40.70;32.80;;;;;;4989341;28;20693;-67
2022/05/18 09:51:08;;;;;;;2.10;0.88;;;;;;;;;;4981975;28;20030;-67
2022/05/18 09:53:35;;;;;;;15.40;2.00;;;40.70;32.50;;;;;;4983489;28;20077;-68
2022/05/18 09:56:01;;;;;;;2.60;1.20;;;;;;;;;;4984832;28;20026;-67
2022/05/18 09:58:27;;;;;;;;;;;;;;;;;;4985864;28;20037;-67
2022/05/18 10:09:26;;;;;;;2.63;0.90;;;41.10;41.80;;;;;;4986959;28;20080;-67
2022/05/18 10:11:51;;;;;;;4.15;1.13;;;40.70;39.20;;;;;;4975345;28;20030;-66
2022/05/18 10:14:17;;;;;;;;;;;;;;;;;;4984449;28;20061;-67
2022/05/18 10:16:48;;;;;;;1.50;1.17;;;;;;;;;;4978631;28;19965;-68
2022/05/18 10:19:26;;;;;;;6.43;1.95;;;40.40;31.10;;;;;;4984064;28;20085;-67
2022/05/18 10:22:00;;;;;;;2.83;1.23;;;39.90;30.90;;;;;;4981561;28;20030;-67
2022/05/18 10:24:49;;;;;;;4.78;2.72;;;;;;;;;;4983625;28;20050;-67
2022/05/18 10:27:15;;;;;;;1.80;0.85;;;;;;;;;;4981974;28;20031;-67
2022/05/18 10:29:41;;;;;;;4.88;0.95;;;;;;;;;;4972426;28;20515;-67
2022/05/18 10:32:19;;;;;;;1.45;0.50;;;37.90;32.50;;;;;;4987085;28;20035;-67
2022/05/18 10:34:46;;;;;;;3.13;0.80;;;;;;;;;;4985722;28;20395;-67
2022/05/18 10:37:13;;;;;;;2.35;0.80;;;;;;;;;;4983471;28;20037;-67
2022/05/18 10:39:39;;;;;;;2.33;0.80;;;;;;;;;;4988987;28;20080;-67
2022/05/18 10:42:25;;;;;;;2.28;0.70;;;;;;;;;;4985402;28;20057;-67
2022/05/18 10:44:53;;;;;;;1.70;0.73;;;;;;;;;;4987234;28;20174;-67
2022/05/18 10:47:19;;;;;;;1.27;0.82;;;;;;;;;;4984475;28;20041;-67
2022/05/18 10:49:46;;;;;;;1.70;0.88;;;;;;;;;;4989441;28;20097;-66
2022/05/18 10:52:12;;;;;;;6.35;0.88;;;;;;;;;;4985947;28;20053;-67
2022/05/18 10:54:38;;;;;;;1.70;0.57;;;;;;;;;;4987708;28;20026;-67
2022/05/18 10:57:04;;;;;;;;;;;;;;;;;;4985719;28;20043;-67
2022/05/18 10:59:50;;;;;;;2.67;0.88;;;;;;;;;;4990867;28;20433;-67
2022/05/18 11:02:36;;;;;;;6.30;1.23;;;36.30;33.40;;;;;;4986245;28;20042;-67
2022/05/18 11:05:38;;;;;;;2.45;1.10;;;36.40;33.90;;;;;;4987214;28;20022;-67
2022/05/18 11:08:08;;;;;;;1.25;0.68;;;35.60;34.50;;;;;;4987662;28;20077;-67
2022/05/18 11:10:54;;;;;;;1.58;0.95;;;34.90;35.20;;;;;;4987786;28;20026;-66
2022/05/18 11:13:31;;;;;;;2.05;0.80;;;;;;;;;;4984765;28;20035;-66
2022/05/18 11:16:15;;;;;;;3.00;1.23;;;;;;;;;;4981479;28;20102;-66
2022/05/18 11:18:45;;;;;;;5.38;1.15;;;;;;;;;;4982953;28;20050;-66
2022/05/18 11:21:24;;;;;;;5.05;1.13;;;33.20;35.60;;;;;;4985003;28;20058;-66
2022/05/18 11:24:06;;;;;;;1.77;0.80;;;32.80;36.00;;;;;;4984951;28;20042;-66
2022/05/18 11:26:41;;;;;;;4.07;1.02;;;;;;;;;;4983180;28;20030;-66
2022/05/18 11:29:22;;;;;;;3.75;0.93;;;;;;;;;;4989065;28;20034;-67
2022/05/18 11:31:55;;;;;;;3.90;1.20;;;;;;;;;;4988560;28;20026;-66
2022/05/18 11:34:36;;;;;;;4.30;1.15;;;;;;;;;;4985080;28;20022;-66
2022/05/18 11:37:02;;;;;;;3.08;0.85;;;;;;;;;;4984321;28;20045;-67
2022/05/18 11:39:38;;;;;;;7.03;1.30;;;;;;;;;;4982853;28;20042;-66
2022/05/18 11:42:04;;;;;;;1.45;1.23;;;;;;;;;;4981824;28;20049;-66
2022/05/18 11:44:49;;;;;;;2.10;0.97;;;;;;;;;;4982961;28;20045;-67
2022/05/18 11:47:40;;;;;;;4.18;1.40;;;31.00;40.20;;;;;;4989374;28;20509;-67
2022/05/18 11:50:06;;;;;;;4.45;0.90;;;;;;;;;;4984363;28;20169;-66
2022/05/18 11:52:41;;;;;;;4.90;0.90;;;;;;;;;;4990573;28;20101;-66
2022/05/18 11:55:13;;;;;;;2.45;1.30;;;;;;;;;;4991188;28;20122;-67
2022/05/18 11:57:45;;;;;;;4.07;0.98;;;;;;;;;;4985327;28;20026;-66
2022/05/18 12:03:23;;;;;;;2.25;1.20;;;;;;;;;;4987533;28;20049;-67
2022/05/18 12:05:49;;;;;;;3.97;1.08;;;;;;;;;;4984066;28;20035;-72
2022/05/18 12:08:47;;;;;;;2.17;0.83;;;30.90;41.10;;;;;;4983557;28;20034;-66
2022/05/18 12:11:21;;;;;;;3.35;1.08;;;;;;;;;;4987473;28;20368;-66
2022/05/18 12:13:49;;;;;;;7.13;1.20;;;;;;;;;;4993500;28;20035;-67
2022/05/18 12:16:35;;;;;;;4.82;1.00;;;30.60;40.30;;;;;;4980373;28;20034;-66
2022/05/18 12:19:16;;;;;;;7.63;1.93;;;;;;;;;;4977560;28;20037;-67
2022/05/18 12:21:48;;;;;;;7.85;1.55;;;;;;;;;;4980820;28;20033;-69
2022/05/18 12:24:14;;;;;;;3.97;1.23;;;;;;;;;;4980880;28;20031;-67
2022/05/18 12:26:44;;;;;;;2.43;1.10;;;;;;;;;;4975867;28;20507;-66
2022/05/18 12:29:11;;;;;;;1.85;1.05;;;;;;;;;;4972137;28;20022;-66
2022/05/18 12:31:37;;;;;;;1.73;0.95;;;;;;;;;;4979046;28;20098;-69
2022/05/18 12:34:06;;;;;;;1.95;1.17;;;;;;;;;;4977242;28;20042;-70
2022/05/18 12:36:44;;;;;;;2.08;1.15;;;;;;;;;;4976285;28;20067;-69
2022/05/18 12:39:12;;;;;;;5.65;1.08;;;;;;;;;;4978075;28;20027;-70
2022/05/18 12:41:42;;;;;;;5.40;2.53;;;;;;;;;;4983693;28;20049;-71
2022/05/18 12:44:13;;;;;;;4.30;1.20;;;;;;;;;;4989608;28;20069;-71
2022/05/18 12:46:53;;;;;;;2.38;1.10;;;;;;;;;;4974454;28;20027;-70
2022/05/18 12:49:40;;;;;;;2.72;1.20;;;29.80;40.70;;;;;;4975265;28;20043;-70
2022/05/18 12:52:13;;;;;;;2.42;1.08;;;;;;;;;;4985628;28;20121;-70
2022/05/18 12:54:43;;;;;;;1.65;1.00;;;;;;;;;;4985620;28;20041;-70
2022/05/18 12:57:11;;;;;;;2.35;1.33;;;29.60;61.30;;;;;;4986240;28;20030;-69
2022/05/18 12:59:55;;;;;;;7.75;1.75;;;;;;;;;;4978064;28;20715;-69
2022/05/18 13:02:36;;;;;;;3.38;0.90;;;;;;;;;;4974628;28;20030;-69
2022/05/18 13:05:31;;;;;;;1.63;1.15;;;30.10;41.60;;;;;;4987272;28;20568;-70
2022/05/18 13:08:03;;;;;;;5.03;1.45;;;;;;;;;;4972721;28;20050;-71
2022/05/18 13:10:33;;;;;;;2.42;0.82;;;;;;;;;;4989070;28;20042;-70
2022/05/18 13:13:01;;;;;;;5.70;1.88;;;;;;;;;;4979813;28;20122;-70
2022/05/18 13:15:52;;;;;;;5.28;1.10;;;30.20;40.60;;;;;;4978664;28;20061;-71
2022/05/18 13:18:19;;;;;;;1.85;0.57;;;;;;;;;;4976775;28;20496;-70
2022/05/18 13:20:53;;;;;;;5.20;1.20;;;;;;;;;;4976215;28;20035;-72
2022/05/18 13:23:24;;;;;;;5.30;1.30;;;30.30;62.90;;;;;;4973868;28;20077;-70
2022/05/18 13:25:59;;;;;;;27.70;1.40;;;;;;;;;;4986925;28;20022;-71
2022/05/18 13:28:26;;;;;;;3.22;0.73;;;;;;;;;;5001968;28;20440;-71
2022/05/18 13:30:54;;;;;;;5.28;1.30;;;;;;;;;;4980600;28;20474;-71
2022/05/18 13:33:20;;;;;;;4.25;2.03;;;30.30;60.60;;;;;;4978451;28;20481;-70
2022/05/18 13:35:47;;;;;;;3.75;1.13;;;;;;;;;;4974449;28;20669;-70
2022/05/18 13:38:15;;;;;;;6.60;1.15;;;30.00;59.40;;;;;;4974058;28;20042;-70
2022/05/18 13:40:55;;;;;;;3.67;2.17;;;;;;;;;;4970566;28;20038;-70
2022/05/18 13:43:22;;;;;;;3.60;1.52;;;29.40;41.60;;;;;;4985567;28;20145;-70
2022/05/18 13:45:48;;;;;;;;;;;;;;;;;;4981370;28;20109;-70
2022/05/18 13:48:15;;;;;;;1.77;0.90;;;;;;;;;;4977713;28;19921;-70
2022/05/18 13:50:43;;;;;;;5.05;1.85;;;;;;;;;;4978367;28;20049;-70
2022/05/18 13:53:18;;;;;;;4.05;1.15;;;29.40;43.10;;;;;;4990042;28;20630;-70
2022/05/18 13:55:45;;;;;;;7.80;1.63;;;;;;;;;;4974452;28;20027;-70
2022/05/18 13:58:20;;;;;;;1.30;1.13;;;;;;;;;;4977736;28;20491;-69
2022/05/18 14:00:51;;;;;;;3.25;1.05;;;;;;;;;;4981509;28;20031;-70
2022/05/18 14:03:19;;;;;;;4.00;1.50;;;;;;;;;;4984075;28;20038;-70
2022/05/18 14:05:46;;;;;;;5.60;1.20;;;;;;;;;;4974590;28;20030;-69
2022/05/18 14:08:21;;;;;;;7.95;1.23;;;;;;;;;;4988371;28;20022;-70
2022/05/18 14:10:47;;;;;;;3.17;1.02;;;;;;;;;;4970332;28;20027;-69
2022/05/18 14:13:13;;;;;;;1.92;1.27;;;;;;;;;;4982900;28;20032;-69
2022/05/18 14:15:40;;;;;;;1.30;0.70;;;;;;;;;;4986565;28;20030;-69
2022/05/18 14:18:08;;;;;;;6.50;1.10;;;;;;;;;;4984867;28;20042;-68
2022/05/18 14:20:39;;;;;;;8.50;1.08;;;;;;;;;;4975601;28;20108;-68
2022/05/18 14:23:08;;;;;;;5.47;0.77;;;;;;;;;;4972933;28;20046;-68
2022/05/18 14:25:37;;;;;;;2.67;1.13;;;;;;;;;;4984673;28;20104;-70
2022/05/18 14:28:09;;;;;;;1.92;1.05;;;;;;;;;;4978044;28;20579;-69
2022/05/18 14:30:36;;;;;;;2.28;0.95;;;;;;;;;;4977106;28;20171;-69
2022/05/18 14:33:02;;;;;;;;;;;;;;;;;;4989370;28;20420;-69
2022/05/18 14:35:35;;;;;;;3.47;0.68;;;29.70;40.40;;;;;;4989010;28;19953;-69
2022/05/18 14:38:04;;;;;;;3.15;0.80;;;;;;;;;;4986296;28;20035;-69
2022/05/18 14:40:33;;;;;;;1.38;1.00;;;;;;;;;;4985062;28;20026;-69
2022/05/18 14:42:59;;;;;;;1.65;0.95;;;29.70;45.40;;;;;;4977017;28;20515;-69
2022/05/18 14:45:27;;;;;;;1.90;0.98;;;;;;;;;;4978140;28;20491;-70
2022/05/18 14:48:07;;;;;;;0.80;0.63;;;;;;;;;;4984883;28;20124;-69
2022/05/18 14:50:33;;;;;;;0.80;0.60;;;;;;;;;;4972094;28;20064;-69
2022/05/18 14:53:04;;;;;;;3.67;0.63;;;;;;;;;;4985734;28;20019;-69